Time;durP1;ratioP1;P1;durP2;ratioP2;P2;SDS_P1;SDS_P2;PMS_P1;PMS_P2;Temp;Humidity;BMP_temperature;BMP_pressure;BME280_temperature;BME280_humidity;BME280_pressure;Samples;Min_cycle;Max_cycle;Signal;HPM_P1;HPM_P2
2021/06/30 00:01:03;;;;;;;;;;;;;;;;;;5052501;28;20021;-73
2021/06/30 00:03:29;;;;;;;2.25;1.00;;;;;;;;;;5039691;28;19912;-76
2021/06/30 00:05:56;;;;;;;1.10;0.90;;;;;;;;;;5033004;28;20427;-76
2021/06/30 00:08:22;;;;;;;1.65;0.90;;;;;;;;;;5032960;28;20268;-73
2021/06/30 00:10:48;;;;;;;1.83;1.00;;;;;;;;;;5032203;28;20410;-75
2021/06/30 00:13:14;;;;;;;2.20;0.85;;;;;;;;;;5033851;28;20778;-76
2021/06/30 00:15:41;;;;;;;2.13;1.00;;;;;;;;;;5033833;28;20048;-75
2021/06/30 00:18:08;;;;;;;2.60;1.10;;;;;;;;;;5034312;28;20109;-73
2021/06/30 00:20:35;;;;;;;1.33;0.98;;;;;;;;;;5034136;28;20036;-75
2021/06/30 00:23:01;;;;;;;1.42;0.90;;;;;;;;;;5034055;28;20136;-74
2021/06/30 00:25:27;;;;;;;3.30;1.00;;;;;;;;;;5034682;28;20079;-75
2021/06/30 00:27:54;;;;;;;1.60;1.20;;;;;;;;;;5032585;28;20689;-76
2021/06/30 00:30:20;;;;;;;1.98;1.00;;;;;;;;;;5018109;28;20468;-77
2021/06/30 00:32:46;;;;;;;1.87;0.90;;;;;;;;;;5020582;28;20091;-74
2021/06/30 00:35:13;;;;;;;2.53;1.00;;;;;;;;;;5033555;28;20482;-77
2021/06/30 00:37:39;;;;;;;2.63;0.93;;;;;;;;;;5033790;28;20457;-76
2021/06/30 00:40:06;;;;;;;2.42;1.15;;;;;;;;;;5031199;28;20387;-76
2021/06/30 00:42:32;;;;;;;3.55;1.00;;;;;;;;;;5031693;28;20030;-77
2021/06/30 00:44:58;;;;;;;2.53;1.20;;;;;;;;;;5034237;28;20068;-76
2021/06/30 00:47:25;;;;;;;1.37;1.00;;;;;;;;;;5032401;28;20398;-75
2021/06/30 00:49:51;;;;;;;4.50;1.10;;;;;;;;;;5034136;28;20026;-74
2021/06/30 00:52:18;;;;;;;1.92;0.95;;;;;;;;;;5033658;28;20104;-78
2021/06/30 00:54:44;;;;;;;2.00;0.90;;;;;;;;;;5047129;28;20527;-76
2021/06/30 00:57:12;;;;;;;1.85;1.08;;;;;;;;;;5053160;28;20075;-74
2021/06/30 00:59:38;;;;;;;4.25;1.10;;;;;;;;;;5053795;28;20071;-74
2021/06/30 01:02:06;;;;;;;1.63;1.10;;;;;;;;;;5050533;28;20104;-76
2021/06/30 01:04:33;;;;;;;1.50;0.90;;;;;;;;;;5033666;28;20033;-74
2021/06/30 01:06:59;;;;;;;;;;;;;;;;;;5031537;28;20025;-76
2021/06/30 01:09:34;;;;;;;2.25;1.05;;;;;;;;;;5046045;28;19909;-76
2021/06/30 01:12:01;;;;;;;3.00;0.90;;;;;;;;;;5033635;28;20033;-75
2021/06/30 01:14:28;;;;;;;2.80;1.05;;;;;;;;;;5030237;28;20581;-76
2021/06/30 01:16:55;;;;;;;1.88;0.93;;;;;;;;;;5026854;28;20084;-74
2021/06/30 01:19:22;;;;;;;2.17;1.20;;;;;;;;;;5017789;28;20034;-75
2021/06/30 01:21:48;;;;;;;;;;;;;;;;;;5032825;28;20382;-76
2021/06/30 01:24:14;;;;;;;1.80;1.00;;;;;;;;;;5031367;28;19909;-75
2021/06/30 01:26:40;;;;;;;2.27;1.00;;;;;;;;;;5031525;28;20021;-75
2021/06/30 01:29:06;;;;;;;2.90;1.08;;;;;;;;;;5032515;28;20079;-74
2021/06/30 01:31:33;;;;;;;1.40;1.00;;;;;;;;;;5031717;28;20029;-75
2021/06/30 01:33:59;;;;;;;1.80;1.05;;;;;;;;;;5030639;28;20108;-76
2021/06/30 01:36:25;;;;;;;2.80;1.10;;;;;;;;;;5031910;28;20591;-77
2021/06/30 01:38:51;;;;;;;1.10;1.00;;;;;;;;;;5035182;28;20049;-74
2021/06/30 01:41:17;;;;;;;4.93;1.20;;;;;;;;;;5035731;28;20030;-76
2021/06/30 01:43:43;;;;;;;1.40;0.90;;;;;;;;;;5034343;28;20032;-78
2021/06/30 01:46:09;;;;;;;3.87;1.30;;;;;;;;;;5033464;28;20442;-75
2021/06/30 01:48:36;;;;;;;1.50;1.10;;;;;;;;;;5018940;28;20355;-75
2021/06/30 01:51:03;;;;;;;4.97;1.20;;;;;;;;;;4330233;28;10021607;-77
2021/06/30 01:53:29;;;;;;;3.80;1.02;;;;;;;;;;5023415;28;20463;-75
2021/06/30 01:55:55;;;;;;;3.27;0.90;;;;;;;;;;5021121;28;20513;-76
2021/06/30 01:58:22;;;;;;;2.22;1.10;;;;;;;;;;5020771;28;20105;-74
2021/06/30 02:00:53;;;;;;;4.70;1.20;;;;;;;;;;5020755;28;20013;-76
2021/06/30 02:03:19;;;;;;;4.18;1.40;;;;;;;;;;5021033;28;20029;-74
2021/06/30 02:05:46;;;;;;;3.22;1.05;;;;;;;;;;5021613;28;20026;-74
2021/06/30 02:08:12;;;;;;;2.25;1.00;;;;;;;;;;5019817;28;20053;-76
2021/06/30 02:10:38;;;;;;;2.03;1.13;;;;;;;;;;5021249;28;20026;-76
2021/06/30 02:13:05;;;;;;;3.38;1.00;;;;;;;;;;5021350;28;20491;-75
2021/06/30 02:15:32;;;;;;;5.75;1.25;;;;;;;;;;5020227;28;20740;-74
2021/06/30 02:17:59;;;;;;;2.75;1.20;;;;;;;;;;5018930;28;20033;-76
2021/06/30 02:20:26;;;;;;;2.15;1.10;;;;;;;;;;5020088;28;20485;-74
2021/06/30 02:22:52;;;;;;;4.75;1.20;;;;;;;;;;5021200;28;20053;-77
2021/06/30 02:25:23;;;;;;;1.75;1.20;;;;;;;;;;5021675;28;20426;-74
2021/06/30 02:27:51;;;;;;;2.22;1.10;;;;;;;;;;5019224;28;20357;-73
2021/06/30 02:30:18;;;;;;;2.22;1.05;;;;;;;;;;5020283;28;20475;-75
2021/06/30 02:32:45;;;;;;;4.15;1.00;;;;;;;;;;5019944;28;20137;-78
2021/06/30 02:35:12;;;;;;;3.40;1.17;;;;;;;;;;5019316;28;20120;-76
2021/06/30 02:37:38;;;;;;;3.88;1.35;;;;;;;;;;5020726;28;20033;-74
2021/06/30 02:40:08;;;;;;;1.40;1.27;;;;;;;;;;5020067;28;20076;-76
2021/06/30 02:42:35;;;;;;;1.88;1.08;;;;;;;;;;5019537;28;20136;-77
2021/06/30 02:45:01;;;;;;;3.00;1.07;;;;;;;;;;5020771;28;20026;-75
2021/06/30 02:47:27;;;;;;;2.15;1.05;;;;;;;;;;5018209;28;20026;-76
2021/06/30 02:49:53;;;;;;;2.92;1.10;;;;;;;;;;5019677;28;20025;-75
2021/06/30 02:52:19;;;;;;;1.47;1.00;;;;;;;;;;5019523;28;20021;-75
2021/06/30 02:54:45;;;;;;;2.92;1.25;;;;;;;;;;5021695;28;21144;-75
2021/06/30 02:57:11;;;;;;;2.97;1.20;;;;;;;;;;5020677;28;20657;-76
2021/06/30 02:59:37;;;;;;;1.40;1.07;;;;;;;;;;5019344;28;20021;-73
2021/06/30 03:02:04;;;;;;;2.00;1.20;;;;;;;;;;5019658;28;20549;-74
2021/06/30 03:04:30;;;;;;;1.90;0.95;;;;;;;;;;5020291;28;20018;-74
2021/06/30 03:06:56;;;;;;;1.73;1.10;;;;;;;;;;5019905;28;20036;-76
2021/06/30 03:09:22;;;;;;;1.47;1.10;;;;;;;;;;5018895;28;20052;-76
2021/06/30 03:11:50;;;;;;;2.00;0.90;;;;;;;;;;5019210;28;20028;-77
2021/06/30 03:14:16;;;;;;;3.13;1.08;;;;;;;;;;5020350;28;20026;-77
2021/06/30 03:16:43;;;;;;;1.42;1.10;;;;;;;;;;5020067;28;20030;-73
2021/06/30 03:19:09;;;;;;;1.80;0.90;;;;;;;;;;5020583;28;20029;-77
2021/06/30 03:21:35;;;;;;;1.98;1.10;;;;;;;;;;5018162;28;20025;-74
2021/06/30 03:24:01;;;;;;;2.30;0.90;;;;;;;;;;5019780;28;20064;-77
2021/06/30 03:26:28;;;;;;;1.90;1.03;;;;;;;;;;5017852;28;20037;-76
2021/06/30 03:28:54;;;;;;;2.47;1.00;;;;;;;;;;5017920;28;20026;-77
2021/06/30 03:31:20;;;;;;;3.10;1.20;;;;;;;;;;5019457;28;20029;-77
2021/06/30 03:33:49;;;;;;;3.07;1.17;;;;;;;;;;5018774;28;20050;-74
2021/06/30 03:36:15;;;;;;;2.08;1.10;;;;;;;;;;5019843;28;20030;-76
2021/06/30 03:38:41;;;;;;;2.53;1.13;;;;;;;;;;5017517;28;20033;-77
2021/06/30 03:41:08;;;;;;;1.97;1.10;;;;;;;;;;5020309;28;20025;-76
2021/06/30 03:43:34;;;;;;;4.07;1.20;;;;;;;;;;5018989;28;20287;-74
2021/06/30 03:46:00;;;;;;;1.27;0.80;;;;;;;;;;5020312;28;20026;-76
2021/06/30 03:48:26;;;;;;;5.03;1.23;;;;;;;;;;5019232;28;20034;-75
2021/06/30 03:50:52;;;;;;;1.10;1.00;;;;;;;;;;5019829;28;20081;-73
2021/06/30 03:53:21;;;;;;;4.10;1.23;;;;;;;;;;5019371;28;20060;-74
2021/06/30 03:55:47;;;;;;;3.22;1.10;;;;;;;;;;5019835;28;20034;-74
2021/06/30 03:58:13;;;;;;;1.73;0.93;;;;;;;;;;5018113;28;20321;-77
2021/06/30 04:00:40;;;;;;;2.87;1.10;;;;;;;;;;5020130;28;20072;-77
2021/06/30 04:03:06;;;;;;;;;;;;;;;;;;5019873;28;20036;-74
2021/06/30 04:05:32;;;;;;;2.50;1.10;;;;;;;;;;5020050;28;19939;-74
2021/06/30 04:07:58;;;;;;;3.80;1.00;;;;;;;;;;5018861;28;20039;-77
2021/06/30 04:10:24;;;;;;;2.17;1.20;;;;;;;;;;5019683;28;20499;-77
2021/06/30 04:12:50;;;;;;;2.57;0.90;;;;;;;;;;5018196;28;20033;-76
2021/06/30 04:15:16;;;;;;;2.60;1.05;;;;;;;;;;5019751;28;20533;-77
2021/06/30 04:17:42;;;;;;;1.20;1.10;;;;;;;;;;5018749;28;20021;-76
2021/06/30 04:20:09;;;;;;;3.67;0.97;;;;;;;;;;5019983;28;20017;-75
2021/06/30 04:22:36;;;;;;;2.70;1.10;;;;;;;;;;5018997;28;20022;-76
2021/06/30 04:25:04;;;;;;;1.95;0.93;;;;;;;;;;5019741;28;20033;-74
2021/06/30 04:27:31;;;;;;;1.20;1.00;;;;;;;;;;5018158;28;20018;-75
2021/06/30 04:29:59;;;;;;;1.48;1.10;;;;;;;;;;5018467;28;20758;-74
2021/06/30 04:32:25;;;;;;;1.45;0.88;;;;;;;;;;5017899;28;20047;-77
2021/06/30 04:34:51;;;;;;;2.40;1.10;;;;;;;;;;5017886;28;20127;-77
2021/06/30 04:37:17;;;;;;;1.50;1.00;;;;;;;;;;5017595;28;20124;-74
2021/06/30 04:39:44;;;;;;;2.27;1.13;;;;;;;;;;5017187;28;20596;-77
2021/06/30 04:42:10;;;;;;;2.05;1.08;;;;;;;;;;5019104;28;20037;-77
2021/06/30 04:44:36;;;;;;;2.35;1.00;;;;;;;;;;5018433;28;20049;-75
2021/06/30 04:47:02;;;;;;;3.57;0.90;;;;;;;;;;5019014;28;20135;-76
2021/06/30 04:49:28;;;;;;;2.10;0.97;;;;;;;;;;5018402;28;20277;-74
2021/06/30 04:51:54;;;;;;;2.07;0.90;;;;;;;;;;5018740;28;20254;-76
2021/06/30 04:54:22;;;;;;;1.30;0.93;;;;;;;;;;5018463;28;20538;-74
2021/06/30 04:56:48;;;;;;;2.47;1.17;;;;;;;;;;5020548;28;20113;-78
2021/06/30 04:59:14;;;;;;;2.50;1.00;;;;;;;;;;5019139;28;20057;-76
2021/06/30 05:01:40;;;;;;;3.43;1.00;;;;;;;;;;5018730;28;20072;-75
2021/06/30 05:04:09;;;;;;;3.67;0.97;;;;;;;;;;5023648;28;20290;-77
2021/06/30 05:06:36;;;;;;;2.80;1.10;;;;;;;;;;5026332;28;20509;-73
2021/06/30 05:09:03;;;;;;;3.00;1.20;;;;;;;;;;5024201;28;20386;-74
2021/06/30 05:11:30;;;;;;;4.53;1.20;;;;;;;;;;5024863;28;20102;-74
2021/06/30 05:14:03;;;;;;;1.65;1.20;;;;;;;;;;5024900;28;20048;-75
2021/06/30 05:16:30;;;;;;;1.88;1.27;;;;;;;;;;5032149;28;20499;-74
2021/06/30 05:18:56;;;;;;;;;;;;;;;;;;5033167;28;20072;-79
2021/06/30 05:21:23;;;;;;;3.70;1.40;;;;;;;;;;5039825;28;19909;-80
2021/06/30 05:23:50;;;;;;;4.20;1.40;;;;;;;;;;5042174;28;20044;-76
2021/06/30 05:26:16;;;;;;;6.13;1.38;;;;;;;;;;5038594;28;20334;-77
2021/06/30 05:28:42;;;;;;;3.67;1.20;;;;;;;;;;5038917;28;20022;-76
2021/06/30 05:31:09;;;;;;;3.50;1.20;;;;;;;;;;5028655;28;20026;-74
2021/06/30 05:33:36;;;;;;;1.87;1.37;;;;;;;;;;5032655;28;20326;-75
2021/06/30 05:36:03;;;;;;;2.00;1.25;;;;;;;;;;5026854;28;20036;-74
2021/06/30 05:38:29;;;;;;;1.73;1.20;;;;;;;;;;5029301;28;20045;-78
2021/06/30 05:40:55;;;;;;;3.90;1.30;;;;;;;;;;5035498;28;20030;-78
2021/06/30 05:43:21;;;;;;;3.75;1.20;;;;;;;;;;5054417;28;20024;-77
2021/06/30 05:45:47;;;;;;;4.57;1.47;;;;;;;;;;5058042;28;20021;-75
2021/06/30 05:48:14;;;;;;;6.30;1.70;;;;;;;;;;5057965;28;20647;-75
2021/06/30 05:50:40;;;;;;;3.13;1.40;;;;;;;;;;5042998;28;20036;-75
2021/06/30 05:53:06;;;;;;;6.03;1.30;;;;;;;;;;5036238;28;20048;-76
2021/06/30 05:55:32;;;;;;;3.97;1.67;;;;;;;;;;5025262;28;20037;-75
2021/06/30 05:57:58;;;;;;;6.77;1.70;;;;;;;;;;5036095;28;20056;-77
2021/06/30 06:00:24;;;;;;;2.47;1.50;;;;;;;;;;5035303;28;20044;-76
2021/06/30 06:02:50;;;;;;;3.22;1.58;;;;;;;;;;5036345;28;20033;-74
2021/06/30 06:05:16;;;;;;;5.27;1.50;;;;;;;;;;5035588;28;20025;-76
2021/06/30 06:07:43;;;;;;;4.88;1.90;;;;;;;;;;5036574;28;20037;-76
2021/06/30 06:10:11;;;;;;;4.38;1.73;;;;;;;;;;5036452;28;20035;-76
2021/06/30 06:12:37;;;;;;;7.18;2.10;;;;;;;;;;5035885;28;20525;-76
2021/06/30 06:15:10;;;;;;;4.53;1.65;;;;;;;;;;5036317;28;20033;-76
2021/06/30 06:17:36;;;;;;;7.32;1.77;;;;;;;;;;5034812;28;20030;-76
2021/06/30 06:20:05;;;;;;;6.20;1.80;;;;;;;;;;5043398;28;20040;-76
2021/06/30 06:22:31;;;;;;;6.13;2.00;;;;;;;;;;5038482;28;20071;-75
2021/06/30 06:24:57;;;;;;;6.07;1.80;;;;;;;;;;5038286;28;20029;-76
2021/06/30 06:27:23;;;;;;;3.80;1.60;;;;;;;;;;5037156;28;20168;-75
2021/06/30 06:29:50;;;;;;;4.47;2.00;;;;;;;;;;5035543;28;20371;-77
2021/06/30 06:32:17;;;;;;;6.65;2.00;;;;;;;;;;5042334;28;20025;-76
2021/06/30 06:34:43;;;;;;;4.47;1.98;;;;;;;;;;5041303;28;20106;-76
2021/06/30 06:37:12;;;;;;;7.20;2.25;;;;;;;;;;5044939;28;20494;-75
2021/06/30 06:39:38;;;;;;;5.82;1.92;;;;;;;;;;5040423;28;20022;-77
2021/06/30 06:42:06;;;;;;;7.82;2.10;;;;;;;;;;5035375;28;20023;-74
2021/06/30 06:44:34;;;;;;;5.57;2.08;;;;;;;;;;5035924;28;20072;-73
2021/06/30 06:47:00;;;;;;;5.25;1.65;;;;;;;;;;5035229;28;20128;-76
2021/06/30 06:49:26;;;;;;;5.72;2.17;;;;;;;;;;5032306;28;20036;-78
2021/06/30 06:51:54;;;;;;;4.43;2.30;;;;;;;;;;5032532;28;20027;-73
2021/06/30 06:54:20;;;;;;;6.82;2.10;;;;;;;;;;5029855;28;20119;-73
2021/06/30 06:56:46;;;;;;;4.72;1.83;;;;;;;;;;5034897;28;20025;-75
2021/06/30 06:59:13;;;;;;;5.97;2.15;;;;;;;;;;5035997;28;20048;-73
2021/06/30 07:01:39;;;;;;;5.00;1.85;;;;;;;;;;5033394;28;20850;-73
2021/06/30 07:04:05;;;;;;;5.13;2.00;;;;;;;;;;5033932;28;20037;-73
2021/06/30 07:06:32;;;;;;;3.22;1.70;;;;;;;;;;5029915;28;20028;-73
2021/06/30 07:08:58;;;;;;;;;;;;;;;;;;5014156;28;20061;-74
2021/06/30 07:11:24;;;;;;;4.32;1.60;;;;;;;;;;5016366;28;19913;-72
2021/06/30 07:13:51;;;;;;;6.07;1.63;;;;;;;;;;5015691;28;20108;-72
2021/06/30 07:16:17;;;;;;;4.25;1.60;;;;;;;;;;5015943;28;20387;-73
2021/06/30 07:18:43;;;;;;;5.78;1.38;;;;;;;;;;5016172;28;20391;-74
2021/06/30 07:21:09;;;;;;;8.77;1.73;;;;;;;;;;5054078;28;20025;-77
2021/06/30 07:23:36;;;;;;;3.17;1.33;;;;;;;;;;5037065;28;20467;-75
2021/06/30 07:26:02;;;;;;;9.97;1.30;;;;;;;;;;5031579;28;20116;-76
2021/06/30 07:28:28;;;;;;;7.13;1.73;;;;;;;;;;5030142;28;20029;-76
2021/06/30 07:30:55;;;;;;;6.47;1.70;;;;;;;;;;5022887;28;20063;-76
2021/06/30 07:33:22;;;;;;;;;;;;;;;;;;5028786;28;20033;-78
2021/06/30 07:35:48;;;;;;;6.88;2.22;;;;;;;;;;5023486;28;19905;-75
2021/06/30 07:38:14;;;;;;;4.93;2.20;;;;;;;;;;3974654;28;10000109;-76
2021/06/30 07:40:40;;;;;;;4.87;1.67;;;;;;;;;;5015684;28;20451;-76
2021/06/30 07:43:07;;;;;;;3.78;1.50;;;;;;;;;;5013666;28;20030;-76
2021/06/30 07:45:33;;;;;;;5.47;1.73;;;;;;;;;;5027999;28;20072;-75
2021/06/30 07:47:59;;;;;;;7.37;2.10;;;;;;;;;;5034697;28;20075;-76
2021/06/30 07:50:25;;;;;;;10.13;2.65;;;;;;;;;;5031252;28;20364;-76
2021/06/30 07:52:55;;;;;;;7.05;1.80;;;;;;;;;;5035108;28;20025;-76
2021/06/30 07:55:22;;;;;;;4.63;1.58;;;;;;;;;;5034065;28;20033;-75
2021/06/30 07:57:48;;;;;;;7.43;1.63;;;;;;;;;;5034768;28;20120;-77
2021/06/30 08:00:14;;;;;;;2.40;1.27;;;;;;;;;;5034524;28;20025;-76
2021/06/30 08:02:40;;;;;;;4.43;1.73;;;;;;;;;;5034890;28;20502;-76
2021/06/30 08:05:07;;;;;;;5.60;2.00;;;;;;;;;;5035179;28;20101;-75
2021/06/30 08:07:33;;;;;;;;;;;;;;;;;;5032458;28;20274;-75
2021/06/30 08:09:59;;;;;;;4.20;1.73;;;;;;;;;;5033682;28;20317;-75
2021/06/30 08:12:25;;;;;;;6.77;1.70;;;;;;;;;;5037562;28;20104;-75
2021/06/30 08:14:51;;;;;;;3.40;1.63;;;;;;;;;;5054424;28;20059;-75
2021/06/30 08:17:18;;;;;;;2.40;1.60;;;;;;;;;;5054894;28;20021;-76
2021/06/30 08:19:44;;;;;;;5.17;1.60;;;;;;;;;;5053529;28;20029;-75
2021/06/30 08:22:10;;;;;;;4.57;2.07;;;;;;;;;;5055352;28;20033;-76
2021/06/30 08:24:41;;;;;;;2.33;1.38;;;;;;;;;;5023863;28;20033;-77
2021/06/30 08:27:08;;;;;;;3.65;1.40;;;;;;;;;;5015366;28;20021;-76
2021/06/30 08:29:35;;;;;;;2.10;1.50;;;;;;;;;;5015454;28;20375;-76
2021/06/30 08:32:01;;;;;;;3.50;1.35;;;;;;;;;;5015308;28;20430;-76
2021/06/30 08:34:29;;;;;;;3.08;1.30;;;;;;;;;;5034661;28;20030;-75
2021/06/30 08:37:01;;;;;;;3.08;1.50;;;;;;;;;;5035675;28;20056;-75
2021/06/30 08:39:27;;;;;;;2.72;1.33;;;;;;;;;;5034430;28;20470;-75
2021/06/30 08:41:53;;;;;;;3.22;1.30;;;;;;;;;;5034714;28;20036;-75
2021/06/30 08:44:20;;;;;;;1.43;1.23;;;;;;;;;;5033072;28;20017;-74
2021/06/30 08:46:46;;;;;;;2.55;1.30;;;;;;;;;;5023332;28;20018;-75
2021/06/30 08:49:18;;;;;;;1.55;1.42;;;;;;;;;;5014973;28;20105;-75
2021/06/30 08:51:45;;;;;;;1.80;1.38;;;;;;;;;;5013744;28;20551;-78
2021/06/30 08:54:12;;;;;;;2.38;1.33;;;;;;;;;;5027311;28;20030;-76
2021/06/30 08:56:40;;;;;;;;;;;;;;;;;;5033004;28;20050;-76
2021/06/30 08:59:06;;;;;;;1.90;1.17;;;;;;;;;;5034693;28;20004;-77
2021/06/30 09:01:32;;;;;;;1.40;1.30;;;;;;;;;;5035582;28;20410;-80
2021/06/30 09:03:59;;;;;;;3.90;1.33;;;;;;;;;;5033928;28;20022;-76
2021/06/30 09:06:26;;;;;;;2.05;0.98;;;;;;;;;;5035400;28;20028;-76
2021/06/30 09:08:53;;;;;;;5.35;1.38;;;;;;;;;;5035009;28;20104;-79
2021/06/30 09:11:19;;;;;;;;;;;;;;;;;;5035905;28;20026;-76
2021/06/30 09:13:46;;;;;;;2.88;1.27;;;;;;;;;;5033612;28;20362;-77
2021/06/30 09:16:12;;;;;;;3.30;1.40;;;;;;;;;;5035808;28;20029;-76
2021/06/30 09:18:42;;;;;;;2.70;1.38;;;;;;;;;;5034609;28;20027;-76
2021/06/30 09:21:23;;;;;;;5.30;1.20;;;;;;;;;;5033888;28;20079;-76
2021/06/30 09:24:11;;;;;;;3.35;0.98;;;;;;;;;;5033796;28;20018;-76
2021/06/30 09:26:39;;;;;;;6.20;1.20;;;;;;;;;;5018353;28;20018;-76
2021/06/30 09:29:07;;;;;;;4.75;1.20;;;;;;;;;;5014972;28;20030;-76
2021/06/30 09:31:33;;;;;;;1.27;1.00;;;;;;;;;;5017012;28;20084;-76
2021/06/30 09:33:59;;;;;;;4.70;1.35;;;;;;;;;;5027585;28;20029;-78
2021/06/30 09:36:27;;;;;;;2.37;1.07;;;;;;;;;;5033540;28;20097;-75
2021/06/30 09:38:53;;;;;;;1.80;1.13;;;;;;;;;;5034222;28;20086;-76
2021/06/30 09:41:30;;;;;;;1.45;1.10;;;;;;;;;;5027134;28;20029;-75
2021/06/30 09:44:05;;;;;;;3.20;1.10;;;;;;;;;;5054215;28;20070;-75
2021/06/30 09:46:31;;;;;;;2.47;1.20;;;;;;;;;;5046855;28;20061;-75
2021/06/30 09:48:58;;;;;;;1.93;1.13;;;;;;;;;;5034810;28;20091;-76
2021/06/30 09:51:24;;;;;;;2.00;1.00;;;;;;;;;;5034708;28;20033;-76
2021/06/30 09:53:51;;;;;;;1.13;1.02;;;;;;;;;;5034254;28;20034;-75
2021/06/30 09:56:34;;;;;;;4.13;1.00;;;;;;;;;;5033911;28;20053;-76
2021/06/30 09:59:09;;;;;;;2.85;1.10;;;;;;;;;;5032999;28;20609;-75
2021/06/30 10:01:35;;;;;;;1.42;1.20;;;;;;;;;;5029145;28;20030;-78
2021/06/30 10:04:01;;;;;;;9.23;2.10;;;;;;;;;;4684004;28;10001273;-72
2021/06/30 10:06:34;;;;;;;3.38;2.00;;;;;;;;;;5019541;28;20030;-79
2021/06/30 10:09:01;;;;;;;9.07;6.30;;;;;;;;;;5024270;28;20028;-80
2021/06/30 10:11:27;;;;;;;;;;;;;;;;;;5023711;28;20030;-78
2021/06/30 10:13:54;;;;;;;10.43;6.35;;;;;;;;;;5024453;28;19919;-79
2021/06/30 10:16:21;;;;;;;7.00;4.75;;;;;;;;;;5023431;28;20112;-78
2021/06/30 10:18:51;;;;;;;8.02;4.38;;;;;;;;;;5036032;28;20025;-83
2021/06/30 10:21:19;;;;;;;10.00;3.90;;;;;;;;;;5034730;28;20804;-79
2021/06/30 10:23:45;;;;;;;5.57;3.70;;;;;;;;;;5029980;28;20024;-80
2021/06/30 10:26:12;;;;;;;4.13;2.78;;;;;;;;;;5029004;28;20060;-81
2021/06/30 10:28:39;;;;;;;7.88;2.80;;;;;;;;;;5026638;28;20045;-84
2021/06/30 10:31:05;;;;;;;4.90;2.50;;;;;;;;;;5032980;28;20474;-80
2021/06/30 10:33:34;;;;;;;3.67;2.07;;;;;;;;;;5024889;28;20060;-80
2021/06/30 10:36:00;;;;;;;4.68;2.15;;;;;;;;;;5025438;28;20289;-78
2021/06/30 10:38:45;;;;;;;3.63;1.95;;;;;;;;;;5027008;28;20041;-79
2021/06/30 10:41:29;;;;;;;3.75;2.03;;;;;;;;;;5026229;28;20036;-79
2021/06/30 10:44:15;;;;;;;3.90;1.83;;;;;;;;;;5023430;28;20105;-79
2021/06/30 10:46:41;;;;;;;2.73;1.70;;;;;;;;;;5029335;28;20048;-79
2021/06/30 10:49:27;;;;;;;4.13;1.80;;;;;;;;;;5019908;28;20755;-76
2021/06/30 10:51:56;;;;;;;5.60;1.63;;;;;;;;;;5028373;28;20017;-77
2021/06/30 10:54:42;;;;;;;4.70;2.47;;;;;;;;;;5028910;28;20025;-77
2021/06/30 10:57:20;;;;;;;5.18;1.70;;;;;;;;;;5026924;28;20076;-82
2021/06/30 11:00:02;;;;;;;2.83;1.48;;;;;;;;;;5018795;28;20116;-77
2021/06/30 11:02:31;;;;;;;3.00;1.50;;;;;;;;;;5021547;28;20010;-80
2021/06/30 11:04:58;;;;;;;1.90;1.33;;;;;;;;;;5024683;28;20067;-79
2021/06/30 11:07:31;;;;;;;3.30;1.58;;;;;;;;;;5022900;28;20022;-80
2021/06/30 11:09:57;;;;;;;2.17;1.52;;;;;;;;;;5020094;28;20029;-79
2021/06/30 11:12:45;;;;;;;2.65;1.40;;;;;;;;;;5024287;28;20025;-80
2021/06/30 11:15:31;;;;;;;2.50;1.45;;;;;;;;;;5020857;28;20041;-79
2021/06/30 11:17:57;;;;;;;5.30;1.30;;;;;;;;;;5020309;28;20061;-81
2021/06/30 11:20:41;;;;;;;2.43;1.20;;;;;;;;;;5021721;28;20707;-80
2021/06/30 11:23:17;;;;;;;3.88;1.38;;;;;;;;;;5021860;28;20022;-80
2021/06/30 11:25:45;;;;;;;3.33;1.27;;;;;;;;;;5019340;28;20033;-81
2021/06/30 11:28:30;;;;;;;4.15;1.30;;;;;;;;;;5019698;28;20539;-80
2021/06/30 11:30:57;;;;;;;1.48;1.30;;;;;;;;;;5022372;28;20025;-79
2021/06/30 11:33:23;;;;;;;3.55;1.42;;;;;;;;;;5021711;28;20030;-79
2021/06/30 11:35:51;;;;;;;4.57;1.20;;;;;;;;;;5019456;28;20034;-79
2021/06/30 11:38:22;;;;;;;2.65;1.35;;;;;;;;;;5019556;28;20080;-80
2021/06/30 11:43:44;;;;;;;1.88;1.10;;;;;;;;;;5021447;28;20125;-79
2021/06/30 11:46:14;;;;;;;2.97;1.30;;;;;;;;;;5022422;28;20025;-78
2021/06/30 11:48:40;;;;;;;3.13;1.30;;;;;;;;;;5022294;28;20050;-80
2021/06/30 11:51:09;;;;;;;2.67;1.20;;;;;;;;;;5021072;28;20488;-81
2021/06/30 11:53:35;;;;;;;2.13;1.10;;;;;;;;;;5021242;28;20171;-77
2021/06/30 11:56:01;;;;;;;2.92;1.08;;;;;;;;;;5023385;28;20025;-77
2021/06/30 11:58:45;;;;;;;4.38;1.40;;;;;;;;;;5021306;28;20037;-77
2021/06/30 12:01:18;;;;;;;2.33;1.20;;;;;;;;;;5020379;28;20029;-78
2021/06/30 12:03:45;;;;;;;1.10;1.00;;;;;;;;;;5021915;28;20107;-79
2021/06/30 12:06:25;;;;;;;3.60;1.35;;;;;;;;;;5020596;28;20026;-77
2021/06/30 12:09:06;;;;;;;1.30;1.05;;;;;;;;;;5022194;28;20037;-78
2021/06/30 12:11:33;;;;;;;1.08;0.98;;;;;;;;;;5023079;28;20029;-79
2021/06/30 12:14:03;;;;;;;1.00;0.90;;;;;;;;;;5023604;28;20041;-77
2021/06/30 12:16:59;;;;;;;2.40;1.00;;;;;;;;;;5020178;28;20068;-78
2021/06/30 12:19:36;;;;;;;1.05;1.00;;;;;;;;;;5012086;28;20623;-77
2021/06/30 12:22:20;;;;;;;1.05;0.90;;;;;;;;;;5021363;28;20056;-77
2021/06/30 12:24:49;;;;;;;1.30;0.80;;;;;;;;;;5017807;28;20076;-80
2021/06/30 12:27:15;;;;;;;1.40;1.00;;;;;;;;;;5017428;28;20029;-81
2021/06/30 12:29:41;;;;;;;1.23;0.80;;;;;;;;;;5019638;28;20021;-79
2021/06/30 12:32:14;;;;;;;2.88;0.95;;;;;;;;;;5015765;28;20524;-78
2021/06/30 12:34:41;;;;;;;1.55;0.88;;;;;;;;;;5019420;28;20437;-82
2021/06/30 12:37:09;;;;;;;2.30;0.90;;;;;;;;;;5014308;28;20038;-85
2021/06/30 12:39:36;;;;;;;1.95;0.82;;;;;;;;;;5008653;28;20545;-80
2021/06/30 12:42:04;;;;;;;4.35;0.85;;;;;;;;;;5015003;28;20042;-78
2021/06/30 13:05:19;;;;;;;2.90;1.20;;;;;;;;;;5048609;27;20467;-86
2021/06/30 13:07:45;;;;;;;7.28;1.20;;;;;;;;;;5050314;28;20482;-85
2021/06/30 13:10:12;;;;;;;1.10;0.85;;;;;;;;;;5048504;28;20467;-86
2021/06/30 13:12:38;;;;;;;;;;;;;;;;;;5050853;28;20449;-82
2021/06/30 13:15:05;;;;;;;4.18;0.80;;;;;;;;;;5047408;28;19967;-77
2021/06/30 13:17:31;;;;;;;2.95;0.70;;;;;;;;;;5048577;28;20025;-85
2021/06/30 13:19:57;;;;;;;1.70;0.67;;;;;;;;;;5047977;28;20036;-82
2021/06/30 13:22:29;;;;;;;1.77;0.40;;;;;;;;;;5046529;28;20830;-83
2021/06/30 13:25:01;;;;;;;1.42;0.50;;;;;;;;;;5048929;28;20494;-83
2021/06/30 13:35:37;;;;;;;0.25;0.20;;;;;;;;;;5045170;28;20090;-83
2021/06/30 13:38:08;;;;;;;1.02;0.30;;;;;;;;;;5044071;28;20026;-83
2021/06/30 13:40:36;;;;;;;0.32;0.20;;;;;;;;;;5043549;28;20025;-82
2021/06/30 13:43:04;;;;;;;0.40;0.25;;;;;;;;;;5042801;28;20057;-83
2021/06/30 13:45:41;;;;;;;0.45;0.20;;;;;;;;;;5038262;28;20398;-83
2021/06/30 13:48:07;;;;;;;;;;;;;;;;;;5039680;28;20025;-82
2021/06/30 13:50:35;;;;;;;0.63;0.30;;;;;;;;;;5044625;28;20345;-83
2021/06/30 13:53:04;;;;;;;0.45;0.25;;;;;;;;;;5045598;28;20053;-83
2021/06/30 13:55:30;;;;;;;3.00;0.32;;;;;;;;;;5056574;28;20052;-83
2021/06/30 13:58:03;;;;;;;0.55;0.40;;;;;;;;;;5047948;28;20033;-82
2021/06/30 14:00:31;;;;;;;1.20;0.40;;;;;;;;;;5057721;28;20021;-82
2021/06/30 14:02:57;;;;;;;0.43;0.20;;;;;;;;;;5056965;28;20050;-82
2021/06/30 14:05:24;;;;;;;0.20;0.20;;;;;;;;;;5061020;28;20032;-83
2021/06/30 14:07:51;;;;;;;2.10;0.30;;;;;;;;;;5062979;28;20254;-82
2021/06/30 14:10:17;;;;;;;0.80;0.20;;;;;;;;;;5062433;28;20040;-83
2021/06/30 14:12:44;;;;;;;0.80;0.32;;;;;;;;;;5052504;28;20041;-83
2021/06/30 14:15:10;;;;;;;3.58;0.40;;;;;;;;;;5053638;28;20105;-84
2021/06/30 14:17:38;;;;;;;0.32;0.30;;;;;;;;;;5041855;28;20025;-84
2021/06/30 14:20:05;;;;;;;0.77;0.38;;;;;;;;;;5044491;28;20017;-84
2021/06/30 14:22:34;;;;;;;1.27;0.20;;;;;;;;;;5038188;28;20109;-82
2021/06/30 14:25:01;;;;;;;1.95;0.20;;;;;;;;;;5037482;28;20036;-83
2021/06/30 14:27:27;;;;;;;1.00;0.30;;;;;;;;;;5034862;28;20049;-83
2021/06/30 14:29:59;;;;;;;0.45;0.30;;;;;;;;;;5034629;28;20041;-84
2021/06/30 14:32:26;;;;;;;0.52;0.30;;;;;;;;;;5034267;28;20021;-81
2021/06/30 14:34:52;;;;;;;2.03;0.30;;;;;;;;;;5035130;28;20022;-82
2021/06/30 14:37:19;;;;;;;1.65;0.50;;;;;;;;;;5030845;28;20028;-82
2021/06/30 14:39:45;;;;;;;0.90;0.20;;;;;;;;;;5030653;28;20030;-83
2021/06/30 14:42:12;;;;;;;2.17;0.35;;;;;;;;;;5031012;28;20036;-82
2021/06/30 14:44:38;;;;;;;0.33;0.23;;;;;;;;;;5031475;28;20061;-82
2021/06/30 14:47:04;;;;;;;0.30;0.30;;;;;;;;;;5032685;28;20263;-83
2021/06/30 14:49:31;;;;;;;0.35;0.35;;;;;;;;;;5034079;28;20025;-84
2021/06/30 14:51:57;;;;;;;0.40;0.40;;;;;;;;;;5031333;28;20045;-83
2021/06/30 14:54:23;;;;;;;0.98;0.40;;;;;;;;;;5032925;28;20025;-83
2021/06/30 14:56:50;;;;;;;3.80;0.30;;;;;;;;;;5031120;28;20040;-83
2021/06/30 14:59:16;;;;;;;1.17;0.40;;;;;;;;;;5031784;28;20045;-82
2021/06/30 15:01:42;;;;;;;0.77;0.40;;;;;;;;;;5030953;28;20030;-83
2021/06/30 15:04:08;;;;;;;0.68;0.57;;;;;;;;;;5031618;28;20061;-83
2021/06/30 15:06:35;;;;;;;1.23;0.40;;;;;;;;;;5032042;28;20030;-83
2021/06/30 15:09:01;;;;;;;0.73;0.40;;;;;;;;;;5032792;28;20045;-83
2021/06/30 15:11:27;;;;;;;0.60;0.40;;;;;;;;;;5031013;28;20637;-83
2021/06/30 15:13:53;;;;;;;1.05;0.50;;;;;;;;;;5033319;28;20063;-83
2021/06/30 15:16:19;;;;;;;1.23;0.47;;;;;;;;;;5032078;28;20049;-83
2021/06/30 15:18:45;;;;;;;0.60;0.43;;;;;;;;;;5032211;28;20446;-83
2021/06/30 15:21:12;;;;;;;0.65;0.40;;;;;;;;;;5032867;28;20361;-84